Accueil
METAR-TAF:

METAR-TAF

Aéroports :

Milton, Massachusetts, États-Unis

latitude: 42-12-44N, longitude: 071-06-53W, altitude: 192 m

Observation

Le bulletin a été fait il y a 50 minutes, à 19:51 UTC
Vent 4 kt de sud-ouest
Température 21°C
Humidité 60%
Pression 1011 hPa

METAR: KMQE 121951Z AUTO 23004KT 21/13 A2985 RMK AO1 SLP116 T02060133

Heure: 16:41 (20:41 UTC)


TAF: absent

Observations et prévisions météorologiques de plus de 4000 aéroports (messages METAR et TAF).

Les stations disponibles sont représentées par des disques jaunes et rouges sur la carte.

Passer la souris dessus pour voir le nom de la station.

Cliquer dessus pour voir les observations et prévisions météorologiques.

Pour changer de carte: cliquez sur les boutons verts avec une croix noire pour zoomer, sur le bouton vert avec un tiret pour effectuer un zoom arrière, ou sur les flèches vertes pour les cartes adjacentes.


METAR-TAF: